sensor_id;sensor_type;location;lat;lon;timestamp;temperature;humidity
20732;DHT22;10527;52.124;5.196;2022-07-29T00:01:51;18.40;99.90
20732;DHT22;10527;52.124;5.196;2022-07-29T00:04:19;18.30;99.90
20732;DHT22;10527;52.124;5.196;2022-07-29T00:06:47;18.40;99.90
20732;DHT22;10527;52.124;5.196;2022-07-29T00:09:14;18.30;99.90
20732;DHT22;10527;52.124;5.196;2022-07-29T00:11:41;18.40;99.90
20732;DHT22;10527;52.124;5.196;2022-07-29T00:14:08;18.30;99.90
20732;DHT22;10527;52.124;5.196;2022-07-29T00:16:35;18.30;99.90
20732;DHT22;10527;52.124;5.196;2022-07-29T00:19:03;18.20;99.90
20732;DHT22;10527;52.124;5.196;2022-07-29T00:21:33;18.20;99.90
20732;DHT22;10527;52.124;5.196;2022-07-29T00:24:00;18.10;99.90
20732;DHT22;10527;52.124;5.196;2022-07-29T00:26:27;18.10;99.90
20732;DHT22;10527;52.124;5.196;2022-07-29T00:29:01;18.10;99.90
20732;DHT22;10527;52.124;5.196;2022-07-29T00:31:49;18.10;99.90
20732;DHT22;10527;52.124;5.196;2022-07-29T00:34:16;18.10;99.90
20732;DHT22;10527;52.124;5.196;2022-07-29T00:37:02;18.10;99.90
20732;DHT22;10527;52.124;5.196;2022-07-29T00:39:29;18.10;99.90
20732;DHT22;10527;52.124;5.196;2022-07-29T00:41:56;18.00;99.90
20732;DHT22;10527;52.124;5.196;2022-07-29T00:44:23;18.00;99.90
20732;DHT22;10527;52.124;5.196;2022-07-29T00:46:49;18.00;99.90
20732;DHT22;10527;52.124;5.196;2022-07-29T00:49:16;17.90;99.90
20732;DHT22;10527;52.124;5.196;2022-07-29T00:51:44;17.90;99.90
20732;DHT22;10527;52.124;5.196;2022-07-29T00:54:12;17.90;99.90
20732;DHT22;10527;52.124;5.196;2022-07-29T00:56:39;17.90;99.90
20732;DHT22;10527;52.124;5.196;2022-07-29T00:59:06;17.90;99.90
20732;DHT22;10527;52.124;5.196;2022-07-29T01:01:33;17.90;99.90
20732;DHT22;10527;52.124;5.196;2022-07-29T01:03:59;17.90;99.90
20732;DHT22;10527;52.124;5.196;2022-07-29T01:06:26;17.80;99.90
20732;DHT22;10527;52.124;5.196;2022-07-29T01:08:53;17.90;99.90
20732;DHT22;10527;52.124;5.196;2022-07-29T01:11:21;17.80;99.90
20732;DHT22;10527;52.124;5.196;2022-07-29T01:13:48;17.70;99.90
20732;DHT22;10527;52.124;5.196;2022-07-29T01:16:24;17.70;99.90
20732;DHT22;10527;52.124;5.196;2022-07-29T01:19:07;17.70;99.90
20732;DHT22;10527;52.124;5.196;2022-07-29T01:22:12;17.70;99.90
20732;DHT22;10527;52.124;5.196;2022-07-29T01:25:13;17.80;99.90
20732;DHT22;10527;52.124;5.196;2022-07-29T01:30:27;17.70;99.90
20732;DHT22;10527;52.124;5.196;2022-07-29T01:33:03;17.70;99.90
20732;DHT22;10527;52.124;5.196;2022-07-29T01:35:39;17.70;99.90
20732;DHT22;10527;52.124;5.196;2022-07-29T01:38:20;17.70;99.90
20732;DHT22;10527;52.124;5.196;2022-07-29T01:40:54;17.70;99.90
20732;DHT22;10527;52.124;5.196;2022-07-29T01:43:36;17.60;99.90
20732;DHT22;10527;52.124;5.196;2022-07-29T01:46:11;17.40;99.90
20732;DHT22;10527;52.124;5.196;2022-07-29T01:48:50;17.40;99.90
20732;DHT22;10527;52.124;5.196;2022-07-29T01:51:29;17.50;99.90
20732;DHT22;10527;52.124;5.196;2022-07-29T01:54:04;17.60;99.90
20732;DHT22;10527;52.124;5.196;2022-07-29T01:56:36;17.60;99.90
20732;DHT22;10527;52.124;5.196;2022-07-29T01:59:25;17.60;99.90
20732;DHT22;10527;52.124;5.196;2022-07-29T02:01:56;17.60;99.90
20732;DHT22;10527;52.124;5.196;2022-07-29T02:04:26;17.60;99.90
20732;DHT22;10527;52.124;5.196;2022-07-29T02:07:00;17.50;99.90
20732;DHT22;10527;52.124;5.196;2022-07-29T02:09:34;17.50;99.90
20732;DHT22;10527;52.124;5.196;2022-07-29T02:12:05;17.50;99.90
20732;DHT22;10527;52.124;5.196;2022-07-29T02:14:41;17.60;99.90
20732;DHT22;10527;52.124;5.196;2022-07-29T02:17:12;17.50;99.90
20732;DHT22;10527;52.124;5.196;2022-07-29T02:19:43;17.50;99.90
20732;DHT22;10527;52.124;5.196;2022-07-29T02:22:12;17.50;99.90
20732;DHT22;10527;52.124;5.196;2022-07-29T02:24:41;17.50;99.90
20732;DHT22;10527;52.124;5.196;2022-07-29T02:27:09;17.50;99.90
20732;DHT22;10527;52.124;5.196;2022-07-29T02:29:39;17.50;99.90
20732;DHT22;10527;52.124;5.196;2022-07-29T02:32:07;17.50;99.90
20732;DHT22;10527;52.124;5.196;2022-07-29T02:34:38;17.40;99.90
20732;DHT22;10527;52.124;5.196;2022-07-29T02:37:09;17.40;99.90
20732;DHT22;10527;52.124;5.196;2022-07-29T02:39:37;17.40;99.90
20732;DHT22;10527;52.124;5.196;2022-07-29T02:42:11;17.30;99.90
20732;DHT22;10527;52.124;5.196;2022-07-29T02:44:41;17.40;99.90
20732;DHT22;10527;52.124;5.196;2022-07-29T02:47:16;17.40;99.90
20732;DHT22;10527;52.124;5.196;2022-07-29T02:50:12;17.50;99.90
20732;DHT22;10527;52.124;5.196;2022-07-29T02:53:02;17.40;99.90
20732;DHT22;10527;52.124;5.196;2022-07-29T02:55:43;17.40;99.90
20732;DHT22;10527;52.124;5.196;2022-07-29T02:58:29;17.40;99.90
20732;DHT22;10527;52.124;5.196;2022-07-29T03:01:02;17.40;99.90
20732;DHT22;10527;52.124;5.196;2022-07-29T03:03:37;17.40;99.90
20732;DHT22;10527;52.124;5.196;2022-07-29T03:06:06;17.40;99.90
20732;DHT22;10527;52.124;5.196;2022-07-29T03:08:55;17.40;99.90
20732;DHT22;10527;52.124;5.196;2022-07-29T03:11:22;17.40;99.90
20732;DHT22;10527;52.124;5.196;2022-07-29T03:14:10;17.40;99.90
20732;DHT22;10527;52.124;5.196;2022-07-29T03:16:39;17.30;99.90
20732;DHT22;10527;52.124;5.196;2022-07-29T03:19:07;17.30;99.90
20732;DHT22;10527;52.124;5.196;2022-07-29T03:21:36;17.30;99.90
20732;DHT22;10527;52.124;5.196;2022-07-29T03:24:03;17.30;99.90
20732;DHT22;10527;52.124;5.196;2022-07-29T03:26:36;17.30;99.90
20732;DHT22;10527;52.124;5.196;2022-07-29T03:29:03;17.30;99.90
20732;DHT22;10527;52.124;5.196;2022-07-29T03:31:29;17.30;99.90
20732;DHT22;10527;52.124;5.196;2022-07-29T03:33:56;17.30;99.90
20732;DHT22;10527;52.124;5.196;2022-07-29T03:36:23;17.20;99.90
20732;DHT22;10527;52.124;5.196;2022-07-29T03:38:52;17.30;99.90
20732;DHT22;10527;52.124;5.196;2022-07-29T03:41:20;17.20;99.90
20732;DHT22;10527;52.124;5.196;2022-07-29T03:43:49;17.10;99.90
20732;DHT22;10527;52.124;5.196;2022-07-29T03:46:22;17.10;99.90
20732;DHT22;10527;52.124;5.196;2022-07-29T03:48:53;17.10;99.90
20732;DHT22;10527;52.124;5.196;2022-07-29T03:51:25;17.10;99.90
20732;DHT22;10527;52.124;5.196;2022-07-29T03:54:03;17.10;99.90
20732;DHT22;10527;52.124;5.196;2022-07-29T03:56:40;17.10;99.90
20732;DHT22;10527;52.124;5.196;2022-07-29T03:59:13;17.20;99.90
20732;DHT22;10527;52.124;5.196;2022-07-29T04:01:42;17.10;99.90
20732;DHT22;10527;52.124;5.196;2022-07-29T04:04:10;17.10;99.90
20732;DHT22;10527;52.124;5.196;2022-07-29T04:06:41;17.10;99.90
20732;DHT22;10527;52.124;5.196;2022-07-29T04:09:09;17.10;99.90
20732;DHT22;10527;52.124;5.196;2022-07-29T04:11:42;17.00;99.90
20732;DHT22;10527;52.124;5.196;2022-07-29T04:14:29;16.90;99.90
20732;DHT22;10527;52.124;5.196;2022-07-29T04:16:57;16.90;99.90
20732;DHT22;10527;52.124;5.196;2022-07-29T04:19:24;16.90;99.90
20732;DHT22;10527;52.124;5.196;2022-07-29T04:21:51;17.00;99.90
20732;DHT22;10527;52.124;5.196;2022-07-29T04:24:17;16.90;99.90
20732;DHT22;10527;52.124;5.196;2022-07-29T04:26:46;16.90;99.90
20732;DHT22;10527;52.124;5.196;2022-07-29T04:29:13;16.90;99.90
20732;DHT22;10527;52.124;5.196;2022-07-29T04:31:41;16.90;99.90
20732;DHT22;10527;52.124;5.196;2022-07-29T04:34:11;16.90;99.90
20732;DHT22;10527;52.124;5.196;2022-07-29T04:36:39;16.90;99.90
20732;DHT22;10527;52.124;5.196;2022-07-29T04:39:06;16.90;99.90
20732;DHT22;10527;52.124;5.196;2022-07-29T04:41:33;16.90;99.90
20732;DHT22;10527;52.124;5.196;2022-07-29T04:44:00;16.90;99.90
20732;DHT22;10527;52.124;5.196;2022-07-29T04:46:34;16.80;99.90
20732;DHT22;10527;52.124;5.196;2022-07-29T04:49:02;16.80;99.90
20732;DHT22;10527;52.124;5.196;2022-07-29T04:51:30;16.80;99.90
20732;DHT22;10527;52.124;5.196;2022-07-29T04:53:57;16.80;99.90
20732;DHT22;10527;52.124;5.196;2022-07-29T04:56:24;16.80;99.90
20732;DHT22;10527;52.124;5.196;2022-07-29T04:58:52;16.90;99.90
20732;DHT22;10527;52.124;5.196;2022-07-29T05:01:20;16.90;99.90
20732;DHT22;10527;52.124;5.196;2022-07-29T05:03:47;16.90;99.90
20732;DHT22;10527;52.124;5.196;2022-07-29T05:06:13;16.90;99.90
20732;DHT22;10527;52.124;5.196;2022-07-29T05:08:42;17.00;99.90
20732;DHT22;10527;52.124;5.196;2022-07-29T05:11:09;16.90;99.90
20732;DHT22;10527;52.124;5.196;2022-07-29T05:13:38;16.90;99.90
20732;DHT22;10527;52.124;5.196;2022-07-29T05:16:12;16.90;99.90
20732;DHT22;10527;52.124;5.196;2022-07-29T05:18:40;16.90;99.90
20732;DHT22;10527;52.124;5.196;2022-07-29T05:21:08;16.90;99.90
20732;DHT22;10527;52.124;5.196;2022-07-29T05:23:36;16.90;99.90
20732;DHT22;10527;52.124;5.196;2022-07-29T05:26:03;16.80;99.90
20732;DHT22;10527;52.124;5.196;2022-07-29T05:28:33;16.90;99.90
20732;DHT22;10527;52.124;5.196;2022-07-29T05:31:01;16.90;99.90
20732;DHT22;10527;52.124;5.196;2022-07-29T05:33:28;16.90;99.90
20732;DHT22;10527;52.124;5.196;2022-07-29T05:36:05;16.90;99.90
20732;DHT22;10527;52.124;5.196;2022-07-29T05:38:37;16.90;99.90
20732;DHT22;10527;52.124;5.196;2022-07-29T05:41:05;16.90;99.90
20732;DHT22;10527;52.124;5.196;2022-07-29T05:43:32;17.00;99.90
20732;DHT22;10527;52.124;5.196;2022-07-29T05:45:59;17.00;99.90
20732;DHT22;10527;52.124;5.196;2022-07-29T05:48:27;17.10;99.90
20732;DHT22;10527;52.124;5.196;2022-07-29T05:50:54;17.00;99.90
20732;DHT22;10527;52.124;5.196;2022-07-29T05:53:22;17.00;99.90
20732;DHT22;10527;52.124;5.196;2022-07-29T05:55:49;17.00;99.90
20732;DHT22;10527;52.124;5.196;2022-07-29T05:58:17;17.10;99.90
20732;DHT22;10527;52.124;5.196;2022-07-29T06:00:46;17.20;99.90
20732;DHT22;10527;52.124;5.196;2022-07-29T06:03:13;17.20;99.90
20732;DHT22;10527;52.124;5.196;2022-07-29T06:05:40;17.20;99.90
20732;DHT22;10527;52.124;5.196;2022-07-29T06:08:08;17.10;99.90
20732;DHT22;10527;52.124;5.196;2022-07-29T06:10:35;17.10;99.90
20732;DHT22;10527;52.124;5.196;2022-07-29T06:13:03;17.10;99.90
20732;DHT22;10527;52.124;5.196;2022-07-29T06:15:29;17.10;99.90
20732;DHT22;10527;52.124;5.196;2022-07-29T06:17:56;17.10;99.90
20732;DHT22;10527;52.124;5.196;2022-07-29T06:20:27;17.20;99.90
20732;DHT22;10527;52.124;5.196;2022-07-29T06:22:58;17.10;99.90
20732;DHT22;10527;52.124;5.196;2022-07-29T06:25:25;17.00;99.90
20732;DHT22;10527;52.124;5.196;2022-07-29T06:27:55;17.00;99.90
20732;DHT22;10527;52.124;5.196;2022-07-29T06:30:22;17.10;99.90
20732;DHT22;10527;52.124;5.196;2022-07-29T06:32:51;17.20;99.90
20732;DHT22;10527;52.124;5.196;2022-07-29T06:35:18;17.10;99.90
20732;DHT22;10527;52.124;5.196;2022-07-29T06:38:05;17.30;99.90
20732;DHT22;10527;52.124;5.196;2022-07-29T06:40:52;17.30;99.90
20732;DHT22;10527;52.124;5.196;2022-07-29T06:46:20;17.40;99.90
20732;DHT22;10527;52.124;5.196;2022-07-29T06:48:51;17.40;99.90
20732;DHT22;10527;52.124;5.196;2022-07-29T06:51:19;17.50;99.90
20732;DHT22;10527;52.124;5.196;2022-07-29T06:53:52;17.60;99.90
20732;DHT22;10527;52.124;5.196;2022-07-29T06:56:28;17.70;99.90
20732;DHT22;10527;52.124;5.196;2022-07-29T06:59:05;17.80;99.90
20732;DHT22;10527;52.124;5.196;2022-07-29T07:01:40;18.00;99.90
20732;DHT22;10527;52.124;5.196;2022-07-29T07:04:09;18.00;99.90
20732;DHT22;10527;52.124;5.196;2022-07-29T07:06:37;18.10;99.90
20732;DHT22;10527;52.124;5.196;2022-07-29T07:09:05;18.20;99.90
20732;DHT22;10527;52.124;5.196;2022-07-29T07:11:32;18.20;99.90
20732;DHT22;10527;52.124;5.196;2022-07-29T07:13:58;18.30;99.90
20732;DHT22;10527;52.124;5.196;2022-07-29T07:16:30;18.40;99.90
20732;DHT22;10527;52.124;5.196;2022-07-29T07:18:58;18.50;99.90
20732;DHT22;10527;52.124;5.196;2022-07-29T07:21:25;18.50;99.90
20732;DHT22;10527;52.124;5.196;2022-07-29T07:23:55;18.50;99.90
20732;DHT22;10527;52.124;5.196;2022-07-29T07:26:22;18.60;99.90
20732;DHT22;10527;52.124;5.196;2022-07-29T07:28:49;18.60;99.90
20732;DHT22;10527;52.124;5.196;2022-07-29T07:31:16;18.70;99.90
20732;DHT22;10527;52.124;5.196;2022-07-29T07:33:43;18.60;99.90
20732;DHT22;10527;52.124;5.196;2022-07-29T07:36:10;18.60;99.90
20732;DHT22;10527;52.124;5.196;2022-07-29T07:38:36;18.70;99.90
20732;DHT22;10527;52.124;5.196;2022-07-29T07:41:03;18.80;99.90
20732;DHT22;10527;52.124;5.196;2022-07-29T07:43:30;18.80;99.90
20732;DHT22;10527;52.124;5.196;2022-07-29T07:45:57;18.80;99.90
20732;DHT22;10527;52.124;5.196;2022-07-29T07:48:24;18.80;99.90
20732;DHT22;10527;52.124;5.196;2022-07-29T07:50:51;18.80;99.90
20732;DHT22;10527;52.124;5.196;2022-07-29T07:53:18;18.80;99.90
20732;DHT22;10527;52.124;5.196;2022-07-29T07:55:45;18.90;99.90
20732;DHT22;10527;52.124;5.196;2022-07-29T07:58:33;18.90;99.90
20732;DHT22;10527;52.124;5.196;2022-07-29T08:01:01;19.10;99.90
20732;DHT22;10527;52.124;5.196;2022-07-29T08:03:28;19.10;99.90
20732;DHT22;10527;52.124;5.196;2022-07-29T08:05:55;19.10;99.90
20732;DHT22;10527;52.124;5.196;2022-07-29T08:08:22;19.10;99.90
20732;DHT22;10527;52.124;5.196;2022-07-29T08:10:49;19.40;99.90
20732;DHT22;10527;52.124;5.196;2022-07-29T08:13:20;19.40;99.90
20732;DHT22;10527;52.124;5.196;2022-07-29T08:15:48;19.20;99.90
20732;DHT22;10527;52.124;5.196;2022-07-29T08:18:25;19.20;99.90
20732;DHT22;10527;52.124;5.196;2022-07-29T08:20:53;19.30;99.90
20732;DHT22;10527;52.124;5.196;2022-07-29T08:23:21;19.10;99.90
20732;DHT22;10527;52.124;5.196;2022-07-29T08:25:50;19.30;99.90
20732;DHT22;10527;52.124;5.196;2022-07-29T08:28:20;19.60;99.90
20732;DHT22;10527;52.124;5.196;2022-07-29T08:30:51;19.80;99.90
20732;DHT22;10527;52.124;5.196;2022-07-29T08:33:18;19.80;99.90
20732;DHT22;10527;52.124;5.196;2022-07-29T08:35:45;20.10;99.90
20732;DHT22;10527;52.124;5.196;2022-07-29T08:38:15;19.90;99.90
20732;DHT22;10527;52.124;5.196;2022-07-29T08:40:43;19.90;99.90
20732;DHT22;10527;52.124;5.196;2022-07-29T08:43:09;19.90;99.90
20732;DHT22;10527;52.124;5.196;2022-07-29T08:45:44;20.30;99.90
20732;DHT22;10527;52.124;5.196;2022-07-29T08:48:17;20.50;99.90
20732;DHT22;10527;52.124;5.196;2022-07-29T08:50:47;20.20;99.90
20732;DHT22;10527;52.124;5.196;2022-07-29T08:53:21;20.10;99.90
20732;DHT22;10527;52.124;5.196;2022-07-29T08:55:50;20.50;99.90
20732;DHT22;10527;52.124;5.196;2022-07-29T08:58:18;20.70;99.90
20732;DHT22;10527;52.124;5.196;2022-07-29T09:00:53;20.80;99.90
20732;DHT22;10527;52.124;5.196;2022-07-29T09:03:24;20.90;99.90
20732;DHT22;10527;52.124;5.196;2022-07-29T09:05:53;21.00;99.90
20732;DHT22;10527;52.124;5.196;2022-07-29T09:08:20;21.00;99.90
20732;DHT22;10527;52.124;5.196;2022-07-29T09:10:48;20.90;99.90
20732;DHT22;10527;52.124;5.196;2022-07-29T09:13:15;20.80;99.90
20732;DHT22;10527;52.124;5.196;2022-07-29T09:15:42;20.70;99.90
20732;DHT22;10527;52.124;5.196;2022-07-29T09:18:09;20.80;99.90
20732;DHT22;10527;52.124;5.196;2022-07-29T09:20:56;20.80;99.90
20732;DHT22;10527;52.124;5.196;2022-07-29T09:26:40;21.30;99.90
20732;DHT22;10527;52.124;5.196;2022-07-29T09:29:16;21.60;99.90
20732;DHT22;10527;52.124;5.196;2022-07-29T09:31:50;21.90;99.90
20732;DHT22;10527;52.124;5.196;2022-07-29T09:34:26;22.10;99.90
20732;DHT22;10527;52.124;5.196;2022-07-29T09:37:25;22.10;99.90
20732;DHT22;10527;52.124;5.196;2022-07-29T09:39:55;22.20;99.90
20732;DHT22;10527;52.124;5.196;2022-07-29T09:42:29;22.40;99.90
20732;DHT22;10527;52.124;5.196;2022-07-29T09:44:58;22.50;99.90
20732;DHT22;10527;52.124;5.196;2022-07-29T09:47:43;22.70;99.90
20732;DHT22;10527;52.124;5.196;2022-07-29T09:50:13;23.10;99.90
20732;DHT22;10527;52.124;5.196;2022-07-29T09:52:50;23.20;99.90
20732;DHT22;10527;52.124;5.196;2022-07-29T09:55:23;23.70;99.90
20732;DHT22;10527;52.124;5.196;2022-07-29T09:57:51;23.80;99.90
20732;DHT22;10527;52.124;5.196;2022-07-29T10:00:20;23.90;99.90
20732;DHT22;10527;52.124;5.196;2022-07-29T10:02:50;24.20;99.90
20732;DHT22;10527;52.124;5.196;2022-07-29T10:05:23;24.10;99.90
20732;DHT22;10527;52.124;5.196;2022-07-29T10:07:57;24.00;99.90
20732;DHT22;10527;52.124;5.196;2022-07-29T10:10:30;23.70;99.90
20732;DHT22;10527;52.124;5.196;2022-07-29T10:13:05;23.50;99.90
20732;DHT22;10527;52.124;5.196;2022-07-29T10:15:44;24.00;99.90
20732;DHT22;10527;52.124;5.196;2022-07-29T10:18:21;23.90;99.90
20732;DHT22;10527;52.124;5.196;2022-07-29T10:20:48;23.80;99.90
20732;DHT22;10527;52.124;5.196;2022-07-29T10:23:15;24.00;99.90
20732;DHT22;10527;52.124;5.196;2022-07-29T10:25:42;24.60;99.90
20732;DHT22;10527;52.124;5.196;2022-07-29T10:28:12;24.60;99.90
20732;DHT22;10527;52.124;5.196;2022-07-29T10:30:45;24.00;99.90
20732;DHT22;10527;52.124;5.196;2022-07-29T10:43:02;23.60;99.90
20732;DHT22;10527;52.124;5.196;2022-07-29T10:45:48;23.60;99.90
20732;DHT22;10527;52.124;5.196;2022-07-29T10:48:23;23.50;99.90
20732;DHT22;10527;52.124;5.196;2022-07-29T10:50:58;23.80;99.90
20732;DHT22;10527;52.124;5.196;2022-07-29T10:53:50;23.70;99.90
20732;DHT22;10527;52.124;5.196;2022-07-29T11:01:50;23.80;99.90
20732;DHT22;10527;52.124;5.196;2022-07-29T11:07:10;23.20;99.90
20732;DHT22;10527;52.124;5.196;2022-07-29T11:15:14;23.00;99.90
20732;DHT22;10527;52.124;5.196;2022-07-29T11:23:30;23.70;99.90
20732;DHT22;10527;52.124;5.196;2022-07-29T11:29:03;23.90;99.90
20732;DHT22;10527;52.124;5.196;2022-07-29T11:31:49;24.20;99.90
20732;DHT22;10527;52.124;5.196;2022-07-29T11:34:29;24.00;99.90
20732;DHT22;10527;52.124;5.196;2022-07-29T11:45:16;24.20;99.90
20732;DHT22;10527;52.124;5.196;2022-07-29T11:48:05;23.80;99.90
20732;DHT22;10527;52.124;5.196;2022-07-29T11:50:52;24.00;99.90
20732;DHT22;10527;52.124;5.196;2022-07-29T11:53:23;24.10;99.90
20732;DHT22;10527;52.124;5.196;2022-07-29T11:55:55;24.30;99.90
20732;DHT22;10527;52.124;5.196;2022-07-29T11:58:27;24.50;99.90
20732;DHT22;10527;52.124;5.196;2022-07-29T12:00:57;24.40;99.90
20732;DHT22;10527;52.124;5.196;2022-07-29T12:03:37;24.70;99.90
20732;DHT22;10527;52.124;5.196;2022-07-29T12:06:12;24.70;99.90
20732;DHT22;10527;52.124;5.196;2022-07-29T12:08:42;25.00;99.90
20732;DHT22;10527;52.124;5.196;2022-07-29T12:11:17;25.10;99.90
20732;DHT22;10527;52.124;5.196;2022-07-29T12:13:50;25.10;99.90
20732;DHT22;10527;52.124;5.196;2022-07-29T12:16:20;24.90;99.90
20732;DHT22;10527;52.124;5.196;2022-07-29T12:18:59;25.20;99.90
20732;DHT22;10527;52.124;5.196;2022-07-29T12:21:29;25.00;99.90
20732;DHT22;10527;52.124;5.196;2022-07-29T12:24:22;25.20;99.90
20732;DHT22;10527;52.124;5.196;2022-07-29T12:26:57;25.80;99.90
20732;DHT22;10527;52.124;5.196;2022-07-29T12:29:26;26.10;99.90
20732;DHT22;10527;52.124;5.196;2022-07-29T12:32:03;26.40;99.90
20732;DHT22;10527;52.124;5.196;2022-07-29T12:34:46;26.40;99.90
20732;DHT22;10527;52.124;5.196;2022-07-29T12:37:13;25.90;99.90
20732;DHT22;10527;52.124;5.196;2022-07-29T12:39:40;26.00;99.90
20732;DHT22;10527;52.124;5.196;2022-07-29T12:42:11;26.10;99.90
20732;DHT22;10527;52.124;5.196;2022-07-29T12:44:48;26.50;99.90
20732;DHT22;10527;52.124;5.196;2022-07-29T12:47:16;26.60;99.90
20732;DHT22;10527;52.124;5.196;2022-07-29T12:49:45;26.80;99.90
20732;DHT22;10527;52.124;5.196;2022-07-29T12:55:05;26.90;99.90
20732;DHT22;10527;52.124;5.196;2022-07-29T12:57:47;27.00;99.90
20732;DHT22;10527;52.124;5.196;2022-07-29T13:00:16;27.00;99.90
20732;DHT22;10527;52.124;5.196;2022-07-29T13:02:56;26.50;99.90
20732;DHT22;10527;52.124;5.196;2022-07-29T13:05:47;26.30;99.90
20732;DHT22;10527;52.124;5.196;2022-07-29T13:08:16;26.30;99.90
20732;DHT22;10527;52.124;5.196;2022-07-29T13:10:50;26.20;99.90
20732;DHT22;10527;52.124;5.196;2022-07-29T13:13:17;26.00;99.90
20732;DHT22;10527;52.124;5.196;2022-07-29T13:16:05;25.90;99.90
20732;DHT22;10527;52.124;5.196;2022-07-29T13:18:35;26.00;99.90
20732;DHT22;10527;52.124;5.196;2022-07-29T13:21:13;26.20;99.90
20732;DHT22;10527;52.124;5.196;2022-07-29T13:23:42;26.40;99.90
20732;DHT22;10527;52.124;5.196;2022-07-29T13:26:10;26.30;99.90
20732;DHT22;10527;52.124;5.196;2022-07-29T13:28:42;26.20;99.90
20732;DHT22;10527;52.124;5.196;2022-07-29T13:31:10;26.20;99.90
20732;DHT22;10527;52.124;5.196;2022-07-29T13:33:38;26.10;99.90
20732;DHT22;10527;52.124;5.196;2022-07-29T13:36:05;26.40;99.90
20732;DHT22;10527;52.124;5.196;2022-07-29T13:38:33;26.30;99.90
20732;DHT22;10527;52.124;5.196;2022-07-29T13:41:05;26.00;99.90
20732;DHT22;10527;52.124;5.196;2022-07-29T13:43:36;25.90;99.90
20732;DHT22;10527;52.124;5.196;2022-07-29T13:46:09;26.30;99.90
20732;DHT22;10527;52.124;5.196;2022-07-29T13:48:36;26.40;99.90
20732;DHT22;10527;52.124;5.196;2022-07-29T13:51:03;26.50;99.90
20732;DHT22;10527;52.124;5.196;2022-07-29T13:53:30;26.30;99.90
20732;DHT22;10527;52.124;5.196;2022-07-29T13:55:57;26.20;99.90
20732;DHT22;10527;52.124;5.196;2022-07-29T13:58:23;26.60;99.90
20732;DHT22;10527;52.124;5.196;2022-07-29T14:00:50;26.40;99.90
20732;DHT22;10527;52.124;5.196;2022-07-29T14:03:17;26.20;99.90
20732;DHT22;10527;52.124;5.196;2022-07-29T14:05:45;26.20;99.90
20732;DHT22;10527;52.124;5.196;2022-07-29T14:08:12;26.20;99.90
20732;DHT22;10527;52.124;5.196;2022-07-29T14:10:39;26.10;99.90
20732;DHT22;10527;52.124;5.196;2022-07-29T14:13:06;26.10;99.90
20732;DHT22;10527;52.124;5.196;2022-07-29T14:15:51;26.10;99.90
20732;DHT22;10527;52.124;5.196;2022-07-29T14:18:18;26.10;99.90
20732;DHT22;10527;52.124;5.196;2022-07-29T14:20:45;26.20;99.90
20732;DHT22;10527;52.124;5.196;2022-07-29T14:23:14;26.20;99.90
20732;DHT22;10527;52.124;5.196;2022-07-29T14:25:41;26.20;99.90
20732;DHT22;10527;52.124;5.196;2022-07-29T14:28:11;26.00;99.90
20732;DHT22;10527;52.124;5.196;2022-07-29T14:30:40;26.10;99.90
20732;DHT22;10527;52.124;5.196;2022-07-29T14:33:07;26.20;99.90
20732;DHT22;10527;52.124;5.196;2022-07-29T14:35:34;26.00;99.90
20732;DHT22;10527;52.124;5.196;2022-07-29T14:38:05;26.00;99.90
20732;DHT22;10527;52.124;5.196;2022-07-29T14:40:33;26.10;99.90
20732;DHT22;10527;52.124;5.196;2022-07-29T14:43:00;25.60;99.90
20732;DHT22;10527;52.124;5.196;2022-07-29T14:45:30;25.80;99.90
20732;DHT22;10527;52.124;5.196;2022-07-29T14:47:58;25.60;99.90
20732;DHT22;10527;52.124;5.196;2022-07-29T14:50:26;25.80;99.90
20732;DHT22;10527;52.124;5.196;2022-07-29T14:52:58;26.00;99.90
20732;DHT22;10527;52.124;5.196;2022-07-29T14:55:26;26.00;99.90
20732;DHT22;10527;52.124;5.196;2022-07-29T14:57:53;26.00;99.90
20732;DHT22;10527;52.124;5.196;2022-07-29T15:00:33;26.00;99.90
20732;DHT22;10527;52.124;5.196;2022-07-29T15:03:00;25.90;99.90
20732;DHT22;10527;52.124;5.196;2022-07-29T15:05:29;26.00;99.90
20732;DHT22;10527;52.124;5.196;2022-07-29T15:07:58;26.20;99.90
20732;DHT22;10527;52.124;5.196;2022-07-29T15:10:26;26.20;99.90
20732;DHT22;10527;52.124;5.196;2022-07-29T15:12:54;26.00;99.90
20732;DHT22;10527;52.124;5.196;2022-07-29T15:15:21;25.80;99.90
20732;DHT22;10527;52.124;5.196;2022-07-29T15:17:48;26.00;99.90
20732;DHT22;10527;52.124;5.196;2022-07-29T15:20:15;26.20;99.90
20732;DHT22;10527;52.124;5.196;2022-07-29T15:22:42;26.10;99.90
20732;DHT22;10527;52.124;5.196;2022-07-29T15:25:09;26.10;99.90
20732;DHT22;10527;52.124;5.196;2022-07-29T15:27:36;26.10;99.90
20732;DHT22;10527;52.124;5.196;2022-07-29T15:30:04;26.10;99.90
20732;DHT22;10527;52.124;5.196;2022-07-29T15:32:31;26.20;99.90
20732;DHT22;10527;52.124;5.196;2022-07-29T15:34:58;26.10;99.90
20732;DHT22;10527;52.124;5.196;2022-07-29T15:37:24;26.10;99.90
20732;DHT22;10527;52.124;5.196;2022-07-29T15:39:51;26.20;99.90
20732;DHT22;10527;52.124;5.196;2022-07-29T15:42:23;26.00;99.90
20732;DHT22;10527;52.124;5.196;2022-07-29T15:44:50;25.90;99.90
20732;DHT22;10527;52.124;5.196;2022-07-29T15:47:17;25.80;99.90
20732;DHT22;10527;52.124;5.196;2022-07-29T15:49:44;25.80;99.90
20732;DHT22;10527;52.124;5.196;2022-07-29T15:52:18;26.00;99.90
20732;DHT22;10527;52.124;5.196;2022-07-29T15:54:55;26.20;99.90
20732;DHT22;10527;52.124;5.196;2022-07-29T15:57:23;26.30;99.90
20732;DHT22;10527;52.124;5.196;2022-07-29T15:59:51;25.90;99.90
20732;DHT22;10527;52.124;5.196;2022-07-29T16:02:18;26.20;99.90
20732;DHT22;10527;52.124;5.196;2022-07-29T16:04:45;26.10;99.90
20732;DHT22;10527;52.124;5.196;2022-07-29T16:07:12;26.20;99.90
20732;DHT22;10527;52.124;5.196;2022-07-29T16:09:40;26.20;99.90
20732;DHT22;10527;52.124;5.196;2022-07-29T16:12:07;25.90;99.90
20732;DHT22;10527;52.124;5.196;2022-07-29T16:14:44;26.20;99.90
20732;DHT22;10527;52.124;5.196;2022-07-29T16:17:11;25.90;99.90
20732;DHT22;10527;52.124;5.196;2022-07-29T16:19:42;25.80;99.90
20732;DHT22;10527;52.124;5.196;2022-07-29T16:22:11;26.10;99.90
20732;DHT22;10527;52.124;5.196;2022-07-29T16:24:38;26.20;99.90
20732;DHT22;10527;52.124;5.196;2022-07-29T16:27:06;26.00;99.90
20732;DHT22;10527;52.124;5.196;2022-07-29T16:29:33;26.10;99.90
20732;DHT22;10527;52.124;5.196;2022-07-29T16:32:02;26.00;99.90
20732;DHT22;10527;52.124;5.196;2022-07-29T16:34:33;26.10;99.90
20732;DHT22;10527;52.124;5.196;2022-07-29T16:37:00;26.00;99.90
20732;DHT22;10527;52.124;5.196;2022-07-29T16:39:27;26.00;99.90
20732;DHT22;10527;52.124;5.196;2022-07-29T16:41:54;26.20;99.90
20732;DHT22;10527;52.124;5.196;2022-07-29T16:44:27;25.90;99.90
20732;DHT22;10527;52.124;5.196;2022-07-29T16:46:55;25.80;99.90